sensor_id;sensor_type;location;lat;lon;timestamp;temperature;humidity
20380;DHT22;10349;48.666;8.948;2023-03-01T00:00:54;-3.30;99.90
20380;DHT22;10349;48.666;8.948;2023-03-01T00:03:19;-3.40;99.90
20380;DHT22;10349;48.666;8.948;2023-03-01T00:05:46;-3.40;99.90
20380;DHT22;10349;48.666;8.948;2023-03-01T00:08:12;-3.40;99.90
20380;DHT22;10349;48.666;8.948;2023-03-01T00:10:38;-3.40;99.90
20380;DHT22;10349;48.666;8.948;2023-03-01T00:13:03;-3.40;99.90
20380;DHT22;10349;48.666;8.948;2023-03-01T00:15:31;-3.40;99.90
20380;DHT22;10349;48.666;8.948;2023-03-01T00:17:57;-3.40;99.90
20380;DHT22;10349;48.666;8.948;2023-03-01T00:20:23;-3.50;99.90
20380;DHT22;10349;48.666;8.948;2023-03-01T00:22:48;-3.50;99.90
20380;DHT22;10349;48.666;8.948;2023-03-01T00:25:14;-3.50;99.90
20380;DHT22;10349;48.666;8.948;2023-03-01T00:27:40;-3.60;99.90
20380;DHT22;10349;48.666;8.948;2023-03-01T00:30:06;-3.60;99.90
20380;DHT22;10349;48.666;8.948;2023-03-01T00:32:32;-3.70;99.90
20380;DHT22;10349;48.666;8.948;2023-03-01T00:34:58;-3.70;99.90
20380;DHT22;10349;48.666;8.948;2023-03-01T00:37:24;-3.70;99.90
20380;DHT22;10349;48.666;8.948;2023-03-01T00:39:49;-3.60;99.90
20380;DHT22;10349;48.666;8.948;2023-03-01T00:42:16;-3.70;99.90
20380;DHT22;10349;48.666;8.948;2023-03-01T00:44:42;-3.70;99.90
20380;DHT22;10349;48.666;8.948;2023-03-01T00:47:08;-3.60;99.90
20380;DHT22;10349;48.666;8.948;2023-03-01T00:49:34;-3.60;99.90
20380;DHT22;10349;48.666;8.948;2023-03-01T00:52:00;-3.70;99.90
20380;DHT22;10349;48.666;8.948;2023-03-01T00:54:26;-3.80;99.90
20380;DHT22;10349;48.666;8.948;2023-03-01T00:56:52;-3.80;99.90
20380;DHT22;10349;48.666;8.948;2023-03-01T00:59:17;-3.80;99.90
20380;DHT22;10349;48.666;8.948;2023-03-01T01:01:43;-3.80;99.90
20380;DHT22;10349;48.666;8.948;2023-03-01T01:04:11;-3.80;99.90
20380;DHT22;10349;48.666;8.948;2023-03-01T01:06:46;-3.90;99.90
20380;DHT22;10349;48.666;8.948;2023-03-01T01:09:14;-3.90;99.90
20380;DHT22;10349;48.666;8.948;2023-03-01T01:11:45;-4.00;99.90
20380;DHT22;10349;48.666;8.948;2023-03-01T01:14:11;-4.00;99.90
20380;DHT22;10349;48.666;8.948;2023-03-01T01:16:36;-4.00;99.90
20380;DHT22;10349;48.666;8.948;2023-03-01T01:19:02;-4.10;99.90
20380;DHT22;10349;48.666;8.948;2023-03-01T01:21:29;-4.10;99.90
20380;DHT22;10349;48.666;8.948;2023-03-01T01:23:57;-4.20;99.90
20380;DHT22;10349;48.666;8.948;2023-03-01T01:26:31;-4.20;99.90
20380;DHT22;10349;48.666;8.948;2023-03-01T01:28:58;-4.30;99.90
20380;DHT22;10349;48.666;8.948;2023-03-01T01:31:24;-4.30;99.90
20380;DHT22;10349;48.666;8.948;2023-03-01T01:33:51;-4.40;99.90
20380;DHT22;10349;48.666;8.948;2023-03-01T01:36:17;-4.40;99.90
20380;DHT22;10349;48.666;8.948;2023-03-01T01:38:43;-4.40;99.90
20380;DHT22;10349;48.666;8.948;2023-03-01T01:41:09;-4.40;99.90
20380;DHT22;10349;48.666;8.948;2023-03-01T01:43:41;-4.40;99.90
20380;DHT22;10349;48.666;8.948;2023-03-01T01:46:15;-4.50;99.90
20380;DHT22;10349;48.666;8.948;2023-03-01T01:48:48;-4.50;99.90
20380;DHT22;10349;48.666;8.948;2023-03-01T01:51:19;-4.60;99.90
20380;DHT22;10349;48.666;8.948;2023-03-01T01:53:51;-4.60;99.90
20380;DHT22;10349;48.666;8.948;2023-03-01T01:56:18;-4.60;99.90
20380;DHT22;10349;48.666;8.948;2023-03-01T01:58:45;-4.60;99.90
20380;DHT22;10349;48.666;8.948;2023-03-01T02:01:14;-4.50;99.90
20380;DHT22;10349;48.666;8.948;2023-03-01T02:03:43;-4.40;99.90
20380;DHT22;10349;48.666;8.948;2023-03-01T02:06:30;-4.40;99.90
20380;DHT22;10349;48.666;8.948;2023-03-01T02:09:10;-4.40;99.90
20380;DHT22;10349;48.666;8.948;2023-03-01T02:11:37;-4.30;99.90
20380;DHT22;10349;48.666;8.948;2023-03-01T02:14:03;-4.40;99.90
20380;DHT22;10349;48.666;8.948;2023-03-01T02:16:29;-4.40;99.90
20380;DHT22;10349;48.666;8.948;2023-03-01T02:18:56;-4.50;99.90
20380;DHT22;10349;48.666;8.948;2023-03-01T02:24:23;-4.50;99.90
20380;DHT22;10349;48.666;8.948;2023-03-01T02:26:55;-4.50;99.90
20380;DHT22;10349;48.666;8.948;2023-03-01T02:29:22;-4.40;99.90
20380;DHT22;10349;48.666;8.948;2023-03-01T02:31:49;-4.40;99.90
20380;DHT22;10349;48.666;8.948;2023-03-01T02:34:19;-4.30;99.90
20380;DHT22;10349;48.666;8.948;2023-03-01T02:36:49;-4.20;99.90
20380;DHT22;10349;48.666;8.948;2023-03-01T02:39:19;-4.20;99.90
20380;DHT22;10349;48.666;8.948;2023-03-01T02:41:50;-4.20;99.90
20380;DHT22;10349;48.666;8.948;2023-03-01T02:44:18;-4.10;99.90
20380;DHT22;10349;48.666;8.948;2023-03-01T02:46:47;-4.10;99.90
20380;DHT22;10349;48.666;8.948;2023-03-01T02:49:28;-4.00;99.90
20380;DHT22;10349;48.666;8.948;2023-03-01T02:52:20;-4.00;99.90
20380;DHT22;10349;48.666;8.948;2023-03-01T02:55:13;-3.90;99.90
20380;DHT22;10349;48.666;8.948;2023-03-01T02:57:43;-3.80;99.90
20380;DHT22;10349;48.666;8.948;2023-03-01T03:00:16;-3.70;99.90
20380;DHT22;10349;48.666;8.948;2023-03-01T03:02:47;-3.70;99.90
20380;DHT22;10349;48.666;8.948;2023-03-01T03:05:19;-3.60;99.90
20380;DHT22;10349;48.666;8.948;2023-03-01T03:07:49;-3.50;99.90
20380;DHT22;10349;48.666;8.948;2023-03-01T03:10:18;-3.40;99.90
20380;DHT22;10349;48.666;8.948;2023-03-01T03:12:58;-3.40;99.90
20380;DHT22;10349;48.666;8.948;2023-03-01T03:15:26;-3.40;99.90
20380;DHT22;10349;48.666;8.948;2023-03-01T03:17:53;-3.30;99.90
20380;DHT22;10349;48.666;8.948;2023-03-01T03:20:21;-3.30;99.90
20380;DHT22;10349;48.666;8.948;2023-03-01T03:22:49;-3.20;99.90
20380;DHT22;10349;48.666;8.948;2023-03-01T03:25:17;-3.20;99.90
20380;DHT22;10349;48.666;8.948;2023-03-01T03:27:46;-3.10;99.90
20380;DHT22;10349;48.666;8.948;2023-03-01T03:30:18;-3.10;99.90
20380;DHT22;10349;48.666;8.948;2023-03-01T03:32:46;-3.10;99.90
20380;DHT22;10349;48.666;8.948;2023-03-01T03:37:48;-3.00;99.90
20380;DHT22;10349;48.666;8.948;2023-03-01T03:40:39;-3.00;99.90
20380;DHT22;10349;48.666;8.948;2023-03-01T03:43:07;-2.90;99.90
20380;DHT22;10349;48.666;8.948;2023-03-01T03:45:34;-2.90;99.90
20380;DHT22;10349;48.666;8.948;2023-03-01T03:48:01;-2.90;99.90
20380;DHT22;10349;48.666;8.948;2023-03-01T03:50:27;-2.90;99.90
20380;DHT22;10349;48.666;8.948;2023-03-01T03:52:53;-2.90;99.90
20380;DHT22;10349;48.666;8.948;2023-03-01T03:55:18;-2.90;99.90
20380;DHT22;10349;48.666;8.948;2023-03-01T03:57:46;-2.90;99.90
20380;DHT22;10349;48.666;8.948;2023-03-01T04:00:19;-2.80;99.90
20380;DHT22;10349;48.666;8.948;2023-03-01T04:02:47;-2.80;99.90
20380;DHT22;10349;48.666;8.948;2023-03-01T04:05:14;-2.80;99.90
20380;DHT22;10349;48.666;8.948;2023-03-01T04:07:41;-2.80;99.90
20380;DHT22;10349;48.666;8.948;2023-03-01T04:10:10;-2.80;99.90
20380;DHT22;10349;48.666;8.948;2023-03-01T04:12:36;-2.80;99.90
20380;DHT22;10349;48.666;8.948;2023-03-01T04:15:03;-2.70;99.90
20380;DHT22;10349;48.666;8.948;2023-03-01T04:17:40;-2.70;99.90
20380;DHT22;10349;48.666;8.948;2023-03-01T04:20:12;-2.70;99.90
20380;DHT22;10349;48.666;8.948;2023-03-01T04:22:39;-2.70;99.90
20380;DHT22;10349;48.666;8.948;2023-03-01T04:25:05;-2.60;99.90
20380;DHT22;10349;48.666;8.948;2023-03-01T04:27:35;-2.70;99.90
20380;DHT22;10349;48.666;8.948;2023-03-01T04:30:03;-2.70;99.90
20380;DHT22;10349;48.666;8.948;2023-03-01T04:32:28;-2.70;99.90
20380;DHT22;10349;48.666;8.948;2023-03-01T04:34:54;-2.60;99.90
20380;DHT22;10349;48.666;8.948;2023-03-01T04:37:20;-2.60;99.90
20380;DHT22;10349;48.666;8.948;2023-03-01T04:39:45;-2.60;99.90
20380;DHT22;10349;48.666;8.948;2023-03-01T04:42:13;-2.50;99.90
20380;DHT22;10349;48.666;8.948;2023-03-01T04:44:39;-2.50;99.90
20380;DHT22;10349;48.666;8.948;2023-03-01T04:47:05;-2.50;99.90
20380;DHT22;10349;48.666;8.948;2023-03-01T04:49:31;-2.50;99.90
20380;DHT22;10349;48.666;8.948;2023-03-01T04:51:57;-2.50;99.90
20380;DHT22;10349;48.666;8.948;2023-03-01T04:54:31;-2.50;99.90
20380;DHT22;10349;48.666;8.948;2023-03-01T04:56:58;-2.50;99.90
20380;DHT22;10349;48.666;8.948;2023-03-01T04:59:24;-2.50;99.90
20380;DHT22;10349;48.666;8.948;2023-03-01T05:01:50;-2.40;99.90
20380;DHT22;10349;48.666;8.948;2023-03-01T05:04:16;-2.50;99.90
20380;DHT22;10349;48.666;8.948;2023-03-01T05:06:42;-2.50;99.90
20380;DHT22;10349;48.666;8.948;2023-03-01T05:09:08;-2.50;99.90
20380;DHT22;10349;48.666;8.948;2023-03-01T05:11:35;-2.50;99.90
20380;DHT22;10349;48.666;8.948;2023-03-01T05:14:08;-2.50;99.90
20380;DHT22;10349;48.666;8.948;2023-03-01T05:16:34;-2.60;99.90
20380;DHT22;10349;48.666;8.948;2023-03-01T05:19:02;-2.50;99.90
20380;DHT22;10349;48.666;8.948;2023-03-01T05:21:38;-2.50;99.90
20380;DHT22;10349;48.666;8.948;2023-03-01T05:24:24;-2.50;99.90
20380;DHT22;10349;48.666;8.948;2023-03-01T05:26:51;-2.40;99.90
20380;DHT22;10349;48.666;8.948;2023-03-01T05:29:24;-2.40;99.90
20380;DHT22;10349;48.666;8.948;2023-03-01T05:31:58;-2.40;99.90
20380;DHT22;10349;48.666;8.948;2023-03-01T05:34:33;-2.40;99.90
20380;DHT22;10349;48.666;8.948;2023-03-01T05:36:59;-2.40;99.90
20380;DHT22;10349;48.666;8.948;2023-03-01T05:39:28;-2.40;99.90
20380;DHT22;10349;48.666;8.948;2023-03-01T05:41:56;-2.40;99.90
20380;DHT22;10349;48.666;8.948;2023-03-01T05:44:23;-2.40;99.90
20380;DHT22;10349;48.666;8.948;2023-03-01T05:46:49;-2.30;99.90
20380;DHT22;10349;48.666;8.948;2023-03-01T05:49:15;-2.30;99.90
20380;DHT22;10349;48.666;8.948;2023-03-01T05:51:42;-2.20;99.90
20380;DHT22;10349;48.666;8.948;2023-03-01T05:54:09;-2.30;99.90
20380;DHT22;10349;48.666;8.948;2023-03-01T05:56:36;-2.30;99.90
20380;DHT22;10349;48.666;8.948;2023-03-01T05:59:02;-2.30;99.90
20380;DHT22;10349;48.666;8.948;2023-03-01T06:01:28;-2.30;99.90
20380;DHT22;10349;48.666;8.948;2023-03-01T06:03:55;-2.30;99.90
20380;DHT22;10349;48.666;8.948;2023-03-01T06:06:22;-2.20;99.90
20380;DHT22;10349;48.666;8.948;2023-03-01T06:08:48;-2.30;99.90
20380;DHT22;10349;48.666;8.948;2023-03-01T06:11:14;-2.30;99.90
20380;DHT22;10349;48.666;8.948;2023-03-01T06:13:44;-2.20;99.90
20380;DHT22;10349;48.666;8.948;2023-03-01T06:16:10;-2.20;99.90
20380;DHT22;10349;48.666;8.948;2023-03-01T06:18:37;-2.20;99.90
20380;DHT22;10349;48.666;8.948;2023-03-01T06:21:04;-2.20;99.90
20380;DHT22;10349;48.666;8.948;2023-03-01T06:23:30;-2.20;99.90
20380;DHT22;10349;48.666;8.948;2023-03-01T06:25:56;-2.20;99.90
20380;DHT22;10349;48.666;8.948;2023-03-01T06:28:22;-2.20;99.90
20380;DHT22;10349;48.666;8.948;2023-03-01T06:30:49;-2.20;99.90
20380;DHT22;10349;48.666;8.948;2023-03-01T06:33:15;-2.10;99.90
20380;DHT22;10349;48.666;8.948;2023-03-01T06:35:40;-2.10;99.90
20380;DHT22;10349;48.666;8.948;2023-03-01T06:38:06;-2.10;99.90
20380;DHT22;10349;48.666;8.948;2023-03-01T06:40:32;-2.10;99.90
20380;DHT22;10349;48.666;8.948;2023-03-01T06:43:00;-2.10;99.90
20380;DHT22;10349;48.666;8.948;2023-03-01T06:45:26;-2.00;99.90
20380;DHT22;10349;48.666;8.948;2023-03-01T06:47:52;-2.00;99.90
20380;DHT22;10349;48.666;8.948;2023-03-01T06:50:18;-1.90;99.90
20380;DHT22;10349;48.666;8.948;2023-03-01T06:52:44;-1.90;99.90
20380;DHT22;10349;48.666;8.948;2023-03-01T06:55:12;-1.90;99.90
20380;DHT22;10349;48.666;8.948;2023-03-01T06:57:37;-1.90;99.90
20380;DHT22;10349;48.666;8.948;2023-03-01T07:00:04;-1.90;99.90
20380;DHT22;10349;48.666;8.948;2023-03-01T07:02:32;-1.90;99.90
20380;DHT22;10349;48.666;8.948;2023-03-01T07:04:57;-1.90;99.90
20380;DHT22;10349;48.666;8.948;2023-03-01T07:07:23;-1.90;99.90
20380;DHT22;10349;48.666;8.948;2023-03-01T07:09:49;-1.90;99.90
20380;DHT22;10349;48.666;8.948;2023-03-01T07:12:15;-1.90;99.90
20380;DHT22;10349;48.666;8.948;2023-03-01T07:14:41;-1.90;99.90
20380;DHT22;10349;48.666;8.948;2023-03-01T07:17:08;-1.80;99.90
20380;DHT22;10349;48.666;8.948;2023-03-01T07:19:34;-1.80;99.90
20380;DHT22;10349;48.666;8.948;2023-03-01T07:22:00;-1.80;99.90
20380;DHT22;10349;48.666;8.948;2023-03-01T07:24:26;-1.80;99.90
20380;DHT22;10349;48.666;8.948;2023-03-01T07:26:53;-1.80;99.90
20380;DHT22;10349;48.666;8.948;2023-03-01T07:29:19;-1.70;99.90
20380;DHT22;10349;48.666;8.948;2023-03-01T07:31:45;-1.70;99.90
20380;DHT22;10349;48.666;8.948;2023-03-01T07:34:10;-1.70;99.90
20380;DHT22;10349;48.666;8.948;2023-03-01T07:36:37;-1.60;99.90
20380;DHT22;10349;48.666;8.948;2023-03-01T07:39:03;-1.60;99.90
20380;DHT22;10349;48.666;8.948;2023-03-01T07:41:29;-1.60;99.90
20380;DHT22;10349;48.666;8.948;2023-03-01T07:43:55;-1.50;99.90
20380;DHT22;10349;48.666;8.948;2023-03-01T07:46:21;-1.50;99.90
20380;DHT22;10349;48.666;8.948;2023-03-01T07:48:48;-1.40;99.90
20380;DHT22;10349;48.666;8.948;2023-03-01T07:51:14;-1.40;99.90
20380;DHT22;10349;48.666;8.948;2023-03-01T07:53:41;-1.30;99.90
20380;DHT22;10349;48.666;8.948;2023-03-01T07:56:07;-1.30;99.90
20380;DHT22;10349;48.666;8.948;2023-03-01T07:58:38;-1.20;99.90
20380;DHT22;10349;48.666;8.948;2023-03-01T08:01:05;-1.10;99.90
20380;DHT22;10349;48.666;8.948;2023-03-01T08:03:32;-1.20;99.90
20380;DHT22;10349;48.666;8.948;2023-03-01T08:06:03;-1.10;99.90
20380;DHT22;10349;48.666;8.948;2023-03-01T08:08:30;-1.10;99.90
20380;DHT22;10349;48.666;8.948;2023-03-01T08:11:01;-1.10;99.90
20380;DHT22;10349;48.666;8.948;2023-03-01T08:13:28;-1.00;99.90
20380;DHT22;10349;48.666;8.948;2023-03-01T08:15:54;-1.00;99.90
20380;DHT22;10349;48.666;8.948;2023-03-01T08:18:21;-0.90;99.90
20380;DHT22;10349;48.666;8.948;2023-03-01T08:20:47;-0.80;99.90
20380;DHT22;10349;48.666;8.948;2023-03-01T08:23:13;-0.80;99.90
20380;DHT22;10349;48.666;8.948;2023-03-01T08:25:39;-0.70;99.90
20380;DHT22;10349;48.666;8.948;2023-03-01T08:28:05;-0.70;99.90
20380;DHT22;10349;48.666;8.948;2023-03-01T08:30:31;-0.60;99.90
20380;DHT22;10349;48.666;8.948;2023-03-01T08:32:57;-0.60;99.90
20380;DHT22;10349;48.666;8.948;2023-03-01T08:35:23;-0.50;99.90
20380;DHT22;10349;48.666;8.948;2023-03-01T08:37:49;-0.50;99.90
20380;DHT22;10349;48.666;8.948;2023-03-01T08:40:14;-0.40;99.90
20380;DHT22;10349;48.666;8.948;2023-03-01T08:42:41;-0.20;99.90
20380;DHT22;10349;48.666;8.948;2023-03-01T08:45:11;-0.20;99.90
20380;DHT22;10349;48.666;8.948;2023-03-01T08:47:37;-0.10;99.90
20380;DHT22;10349;48.666;8.948;2023-03-01T08:50:03;0.00;99.90
20380;DHT22;10349;48.666;8.948;2023-03-01T08:52:32;0.20;99.90
20380;DHT22;10349;48.666;8.948;2023-03-01T08:54:58;0.30;99.90
20380;DHT22;10349;48.666;8.948;2023-03-01T08:57:23;0.40;99.90
20380;DHT22;10349;48.666;8.948;2023-03-01T08:59:49;0.60;99.90
20380;DHT22;10349;48.666;8.948;2023-03-01T09:02:16;0.70;99.90
20380;DHT22;10349;48.666;8.948;2023-03-01T09:04:43;0.70;99.90
20380;DHT22;10349;48.666;8.948;2023-03-01T09:07:10;0.70;99.90
20380;DHT22;10349;48.666;8.948;2023-03-01T09:09:36;0.80;99.90
20380;DHT22;10349;48.666;8.948;2023-03-01T09:12:02;0.90;99.90
20380;DHT22;10349;48.666;8.948;2023-03-01T09:14:28;0.90;99.90
20380;DHT22;10349;48.666;8.948;2023-03-01T09:16:54;0.90;99.90
20380;DHT22;10349;48.666;8.948;2023-03-01T09:19:20;0.90;99.90
20380;DHT22;10349;48.666;8.948;2023-03-01T09:21:45;1.00;99.90
20380;DHT22;10349;48.666;8.948;2023-03-01T09:24:19;1.00;99.90
20380;DHT22;10349;48.666;8.948;2023-03-01T09:26:45;1.10;99.90
20380;DHT22;10349;48.666;8.948;2023-03-01T09:29:14;1.10;99.90
20380;DHT22;10349;48.666;8.948;2023-03-01T09:31:40;1.20;99.90
20380;DHT22;10349;48.666;8.948;2023-03-01T09:34:07;1.30;99.90
20380;DHT22;10349;48.666;8.948;2023-03-01T09:36:32;1.30;99.90
20380;DHT22;10349;48.666;8.948;2023-03-01T09:38:59;1.40;99.90
20380;DHT22;10349;48.666;8.948;2023-03-01T09:42:03;1.50;99.90
20380;DHT22;10349;48.666;8.948;2023-03-01T09:44:49;1.50;99.90
20380;DHT22;10349;48.666;8.948;2023-03-01T09:47:35;1.60;99.90
20380;DHT22;10349;48.666;8.948;2023-03-01T09:50:18;1.60;99.90
20380;DHT22;10349;48.666;8.948;2023-03-01T09:55:28;1.70;99.90
20380;DHT22;10349;48.666;8.948;2023-03-01T10:00:46;1.80;99.90
20380;DHT22;10349;48.666;8.948;2023-03-01T10:03:26;1.80;99.90
20380;DHT22;10349;48.666;8.948;2023-03-01T10:06:15;1.90;99.90
20380;DHT22;10349;48.666;8.948;2023-03-01T10:11:25;2.10;99.90
20380;DHT22;10349;48.666;8.948;2023-03-01T10:14:02;2.20;99.90
20380;DHT22;10349;48.666;8.948;2023-03-01T10:16:40;2.20;99.90
20380;DHT22;10349;48.666;8.948;2023-03-01T10:19:12;2.30;99.90
20380;DHT22;10349;48.666;8.948;2023-03-01T10:21:44;2.30;99.90
20380;DHT22;10349;48.666;8.948;2023-03-01T10:24:14;2.30;99.90
20380;DHT22;10349;48.666;8.948;2023-03-01T10:26:48;2.30;99.90
20380;DHT22;10349;48.666;8.948;2023-03-01T10:29:16;2.40;99.90
20380;DHT22;10349;48.666;8.948;2023-03-01T10:31:52;2.40;99.90
20380;DHT22;10349;48.666;8.948;2023-03-01T10:36:58;2.50;99.90
20380;DHT22;10349;48.666;8.948;2023-03-01T10:39:26;2.60;99.90
20380;DHT22;10349;48.666;8.948;2023-03-01T10:44:43;3.00;99.90
20380;DHT22;10349;48.666;8.948;2023-03-01T10:47:24;3.10;99.90
20380;DHT22;10349;48.666;8.948;2023-03-01T10:49:52;3.30;99.90
20380;DHT22;10349;48.666;8.948;2023-03-01T10:52:21;3.50;99.90
20380;DHT22;10349;48.666;8.948;2023-03-01T10:55:43;3.60;99.90
20380;DHT22;10349;48.666;8.948;2023-03-01T10:57:50;3.70;99.90
20380;DHT22;10349;48.666;8.948;2023-03-01T11:00:31;3.90;99.90
20380;DHT22;10349;48.666;8.948;2023-03-01T11:03:03;3.90;99.90
20380;DHT22;10349;48.666;8.948;2023-03-01T11:05:35;3.90;99.90
20380;DHT22;10349;48.666;8.948;2023-03-01T11:08:02;4.00;99.90
20380;DHT22;10349;48.666;8.948;2023-03-01T11:10:32;4.00;99.90
20380;DHT22;10349;48.666;8.948;2023-03-01T11:13:14;4.10;99.90
20380;DHT22;10349;48.666;8.948;2023-03-01T11:15:41;4.30;99.90
20380;DHT22;10349;48.666;8.948;2023-03-01T11:18:21;4.50;99.90
20380;DHT22;10349;48.666;8.948;2023-03-01T11:20:48;4.60;99.90
20380;DHT22;10349;48.666;8.948;2023-03-01T11:23:16;4.70;99.90
20380;DHT22;10349;48.666;8.948;2023-03-01T11:25:48;4.70;99.90
20380;DHT22;10349;48.666;8.948;2023-03-01T11:28:18;4.80;99.90
20380;DHT22;10349;48.666;8.948;2023-03-01T11:30:58;4.90;99.90
20380;DHT22;10349;48.666;8.948;2023-03-01T11:33:50;5.10;99.90
20380;DHT22;10349;48.666;8.948;2023-03-01T11:36:32;5.10;99.90
20380;DHT22;10349;48.666;8.948;2023-03-01T11:39:27;5.30;99.90
20380;DHT22;10349;48.666;8.948;2023-03-01T11:42:02;5.40;99.90
20380;DHT22;10349;48.666;8.948;2023-03-01T11:44:33;5.40;99.90
20380;DHT22;10349;48.666;8.948;2023-03-01T11:47:14;5.40;99.90
20380;DHT22;10349;48.666;8.948;2023-03-01T11:55:17;5.20;99.90
20380;DHT22;10349;48.666;8.948;2023-03-01T11:57:51;5.20;99.90
20380;DHT22;10349;48.666;8.948;2023-03-01T12:09:20;5.10;99.90
20380;DHT22;10349;48.666;8.948;2023-03-01T12:20:17;5.20;99.90
20380;DHT22;10349;48.666;8.948;2023-03-01T12:28:27;5.50;99.90
20380;DHT22;10349;48.666;8.948;2023-03-01T12:48:08;5.70;99.90
20380;DHT22;10349;48.666;8.948;2023-03-01T12:50:26;5.60;99.90
20380;DHT22;10349;48.666;8.948;2023-03-01T12:52:56;5.60;99.90
20380;DHT22;10349;48.666;8.948;2023-03-01T12:55:36;5.70;99.90
20380;DHT22;10349;48.666;8.948;2023-03-01T13:03:38;5.70;99.90
20380;DHT22;10349;48.666;8.948;2023-03-01T13:06:12;5.70;99.90
20380;DHT22;10349;48.666;8.948;2023-03-01T13:09:05;5.70;99.90
20380;DHT22;10349;48.666;8.948;2023-03-01T13:11:34;5.70;99.90
20380;DHT22;10349;48.666;8.948;2023-03-01T13:16:54;6.00;99.90
20380;DHT22;10349;48.666;8.948;2023-03-01T13:19:23;6.00;99.90
20380;DHT22;10349;48.666;8.948;2023-03-01T13:21:51;6.20;99.90
20380;DHT22;10349;48.666;8.948;2023-03-01T13:24:36;6.20;99.90
20380;DHT22;10349;48.666;8.948;2023-03-01T13:29:47;6.30;99.90
20380;DHT22;10349;48.666;8.948;2023-03-01T13:32:20;6.30;99.90
20380;DHT22;10349;48.666;8.948;2023-03-01T13:34:48;6.40;99.90
20380;DHT22;10349;48.666;8.948;2023-03-01T13:37:30;6.40;99.90
20380;DHT22;10349;48.666;8.948;2023-03-01T13:39:58;6.50;99.90
20380;DHT22;10349;48.666;8.948;2023-03-01T13:44:58;6.60;99.90
20380;DHT22;10349;48.666;8.948;2023-03-01T13:47:24;6.60;99.90
20380;DHT22;10349;48.666;8.948;2023-03-01T13:49:58;6.70;99.90
20380;DHT22;10349;48.666;8.948;2023-03-01T13:55:42;6.70;99.90
20380;DHT22;10349;48.666;8.948;2023-03-01T13:58:32;6.70;99.90
20380;DHT22;10349;48.666;8.948;2023-03-01T14:01:02;6.50;99.90
20380;DHT22;10349;48.666;8.948;2023-03-01T14:03:29;6.60;99.90
20380;DHT22;10349;48.666;8.948;2023-03-01T14:06:16;6.70;99.90
20380;DHT22;10349;48.666;8.948;2023-03-01T14:08:45;6.70;99.90
20380;DHT22;10349;48.666;8.948;2023-03-01T14:14:10;6.80;99.90
20380;DHT22;10349;48.666;8.948;2023-03-01T14:17:00;6.90;99.90
20380;DHT22;10349;48.666;8.948;2023-03-01T14:19:30;6.80;99.90
20380;DHT22;10349;48.666;8.948;2023-03-01T14:22:26;6.60;99.90
20380;DHT22;10349;48.666;8.948;2023-03-01T14:25:19;6.60;99.90
20380;DHT22;10349;48.666;8.948;2023-03-01T14:27:52;6.50;99.90
20380;DHT22;10349;48.666;8.948;2023-03-01T14:32:56;6.30;99.90
20380;DHT22;10349;48.666;8.948;2023-03-01T14:35:28;6.30;99.90
20380;DHT22;10349;48.666;8.948;2023-03-01T14:37:54;6.30;99.90
20380;DHT22;10349;48.666;8.948;2023-03-01T14:40:26;6.30;99.90
20380;DHT22;10349;48.666;8.948;2023-03-01T14:42:53;6.30;99.90
20380;DHT22;10349;48.666;8.948;2023-03-01T14:45:29;6.30;99.90
20380;DHT22;10349;48.666;8.948;2023-03-01T14:47:59;6.30;99.90
20380;DHT22;10349;48.666;8.948;2023-03-01T14:50:28;6.30;99.90
20380;DHT22;10349;48.666;8.948;2023-03-01T14:53:01;6.30;99.90
20380;DHT22;10349;48.666;8.948;2023-03-01T14:55:36;6.20;99.90
20380;DHT22;10349;48.666;8.948;2023-03-01T14:58:11;6.20;99.90
20380;DHT22;10349;48.666;8.948;2023-03-01T15:00:37;6.20;99.90
20380;DHT22;10349;48.666;8.948;2023-03-01T15:03:11;6.20;99.90
20380;DHT22;10349;48.666;8.948;2023-03-01T15:05:41;6.10;99.90
20380;DHT22;10349;48.666;8.948;2023-03-01T15:08:18;6.10;99.90
20380;DHT22;10349;48.666;8.948;2023-03-01T15:11:00;6.00;99.90
20380;DHT22;10349;48.666;8.948;2023-03-01T15:13:32;6.00;99.90
20380;DHT22;10349;48.666;8.948;2023-03-01T15:16:14;6.00;99.90
20380;DHT22;10349;48.666;8.948;2023-03-01T15:19:02;6.00;99.90
20380;DHT22;10349;48.666;8.948;2023-03-01T15:21:37;6.00;99.90
20380;DHT22;10349;48.666;8.948;2023-03-01T15:26:52;6.00;99.90
20380;DHT22;10349;48.666;8.948;2023-03-01T15:29:28;5.90;99.90
20380;DHT22;10349;48.666;8.948;2023-03-01T15:32:01;5.80;99.90
20380;DHT22;10349;48.666;8.948;2023-03-01T15:34:36;5.90;99.90
20380;DHT22;10349;48.666;8.948;2023-03-01T15:37:04;5.80;99.90
20380;DHT22;10349;48.666;8.948;2023-03-01T15:41:58;5.80;99.90
20380;DHT22;10349;48.666;8.948;2023-03-01T15:44:32;5.80;99.90
20380;DHT22;10349;48.666;8.948;2023-03-01T15:46:58;5.80;99.90
20380;DHT22;10349;48.666;8.948;2023-03-01T15:49:41;5.80;99.90
20380;DHT22;10349;48.666;8.948;2023-03-01T15:52:35;5.70;99.90
20380;DHT22;10349;48.666;8.948;2023-03-01T15:55:14;5.60;99.90
20380;DHT22;10349;48.666;8.948;2023-03-01T15:57:40;5.40;99.90
20380;DHT22;10349;48.666;8.948;2023-03-01T16:00:09;5.40;99.90
20380;DHT22;10349;48.666;8.948;2023-03-01T16:02:37;5.40;99.90
20380;DHT22;10349;48.666;8.948;2023-03-01T16:05:03;5.30;99.90
20380;DHT22;10349;48.666;8.948;2023-03-01T16:07:29;5.30;99.90
20380;DHT22;10349;48.666;8.948;2023-03-01T16:09:56;5.30;99.90
20380;DHT22;10349;48.666;8.948;2023-03-01T16:12:22;5.20;99.90
20380;DHT22;10349;48.666;8.948;2023-03-01T16:14:50;5.20;99.90
20380;DHT22;10349;48.666;8.948;2023-03-01T16:17:16;5.10;99.90
20380;DHT22;10349;48.666;8.948;2023-03-01T16:19:41;5.10;99.90
20380;DHT22;10349;48.666;8.948;2023-03-01T16:22:10;5.10;99.90
20380;DHT22;10349;48.666;8.948;2023-03-01T16:24:35;5.00;99.90
20380;DHT22;10349;48.666;8.948;2023-03-01T16:27:02;5.00;99.90
20380;DHT22;10349;48.666;8.948;2023-03-01T16:29:29;4.90;99.90
20380;DHT22;10349;48.666;8.948;2023-03-01T16:31:55;4.80;99.90
20380;DHT22;10349;48.666;8.948;2023-03-01T16:34:20;4.80;99.90
20380;DHT22;10349;48.666;8.948;2023-03-01T16:36:47;4.80;99.90
20380;DHT22;10349;48.666;8.948;2023-03-01T16:39:13;4.70;99.90
20380;DHT22;10349;48.666;8.948;2023-03-01T16:41:39;4.70;99.90
20380;DHT22;10349;48.666;8.948;2023-03-01T16:44:05;4.70;99.90
20380;DHT22;10349;48.666;8.948;2023-03-01T16:46:33;4.60;99.90
20380;DHT22;10349;48.666;8.948;2023-03-01T16:48:59;4.50;99.90
20380;DHT22;10349;48.666;8.948;2023-03-01T16:51:25;4.50;99.90
20380;DHT22;10349;48.666;8.948;2023-03-01T16:53:51;4.40;99.90
20380;DHT22;10349;48.666;8.948;2023-03-01T16:56:18;4.50;99.90
20380;DHT22;10349;48.666;8.948;2023-03-01T16:58:44;4.30;99.90
20380;DHT22;10349;48.666;8.948;2023-03-01T17:01:19;4.30;99.90
20380;DHT22;10349;48.666;8.948;2023-03-01T17:03:46;4.30;99.90
20380;DHT22;10349;48.666;8.948;2023-03-01T17:06:16;4.20;99.90
20380;DHT22;10349;48.666;8.948;2023-03-01T17:08:43;4.10;99.90
20380;DHT22;10349;48.666;8.948;2023-03-01T17:11:11;4.10;99.90
20380;DHT22;10349;48.666;8.948;2023-03-01T17:13:38;4.10;99.90
20380;DHT22;10349;48.666;8.948;2023-03-01T17:16:06;4.00;99.90
20380;DHT22;10349;48.666;8.948;2023-03-01T17:18:32;4.00;99.90
20380;DHT22;10349;48.666;8.948;2023-03-01T17:20:58;4.00;99.90
20380;DHT22;10349;48.666;8.948;2023-03-01T17:23:25;3.80;99.90
20380;DHT22;10349;48.666;8.948;2023-03-01T17:25:51;3.80;99.90